sensor_id;sensor_type;location;lat;lon;timestamp;pressure;altitude;pressure_sealevel;temperature;humidity
67545;BME280;54380;47.770;11.150;2022-08-01T00:00:06;94893.72;;;22.56;51.02
67545;BME280;54380;47.770;11.150;2022-08-01T00:02:35;94895.31;;;22.57;51.32
67545;BME280;54380;47.770;11.150;2022-08-01T00:05:02;94888.03;;;22.57;51.08
67545;BME280;54380;47.770;11.150;2022-08-01T00:07:32;94890.38;;;22.59;51.05
67545;BME280;54380;47.770;11.150;2022-08-01T00:10:00;94889.75;;;22.62;51.33
67545;BME280;54380;47.770;11.150;2022-08-01T00:12:27;94888.63;;;22.63;51.10
67545;BME280;54380;47.770;11.150;2022-08-01T00:14:54;94885.66;;;22.56;50.85
67545;BME280;54380;47.770;11.150;2022-08-01T00:17:20;94889.66;;;22.50;50.89
67545;BME280;54380;47.770;11.150;2022-08-01T00:19:47;94880.81;;;22.49;51.01
67545;BME280;54380;47.770;11.150;2022-08-01T00:22:14;94886.19;;;22.49;51.00
67545;BME280;54380;47.770;11.150;2022-08-01T00:24:40;94886.19;;;22.49;51.06
67545;BME280;54380;47.770;11.150;2022-08-01T00:27:09;94891.09;;;22.47;51.06
67545;BME280;54380;47.770;11.150;2022-08-01T00:29:35;94885.91;;;22.42;51.06
67545;BME280;54380;47.770;11.150;2022-08-01T00:32:22;94893.84;;;22.39;51.02
67545;BME280;54380;47.770;11.150;2022-08-01T00:34:49;94883.88;;;22.39;51.33
67545;BME280;54380;47.770;11.150;2022-08-01T00:37:16;94892.72;;;22.40;51.34
67545;BME280;54380;47.770;11.150;2022-08-01T00:39:43;94899.34;;;22.42;51.48
67545;BME280;54380;47.770;11.150;2022-08-01T00:42:12;94896.00;;;22.45;51.47
67545;BME280;54380;47.770;11.150;2022-08-01T00:44:39;94904.72;;;22.42;51.10
67545;BME280;54380;47.770;11.150;2022-08-01T00:47:06;94908.97;;;22.43;51.62
67545;BME280;54380;47.770;11.150;2022-08-01T00:49:33;94913.44;;;22.39;51.53
67545;BME280;54380;47.770;11.150;2022-08-01T00:52:00;94916.13;;;22.39;51.79
67545;BME280;54380;47.770;11.150;2022-08-01T00:54:29;94918.16;;;22.42;51.69
67545;BME280;54380;47.770;11.150;2022-08-01T00:56:56;94919.59;;;22.40;51.55
67545;BME280;54380;47.770;11.150;2022-08-01T00:59:26;94916.91;;;22.40;51.73
67545;BME280;54380;47.770;11.150;2022-08-01T01:01:52;94925.47;;;22.42;51.47
67545;BME280;54380;47.770;11.150;2022-08-01T01:04:20;94921.00;;;22.46;51.63
67545;BME280;54380;47.770;11.150;2022-08-01T01:06:54;94927.97;;;22.47;51.52
67545;BME280;54380;47.770;11.150;2022-08-01T01:09:32;94929.41;;;22.44;51.48
67545;BME280;54380;47.770;11.150;2022-08-01T01:12:08;94929.91;;;22.38;51.43
67545;BME280;54380;47.770;11.150;2022-08-01T01:14:38;94929.00;;;22.25;51.36
67545;BME280;54380;47.770;11.150;2022-08-01T01:17:07;94921.72;;;22.17;51.35
67545;BME280;54380;47.770;11.150;2022-08-01T01:19:39;94918.59;;;22.14;51.56
67545;BME280;54380;47.770;11.150;2022-08-01T01:22:25;94925.06;;;22.13;51.45
67545;BME280;54380;47.770;11.150;2022-08-01T01:25:14;94925.72;;;22.10;51.37
67545;BME280;54380;47.770;11.150;2022-08-01T01:27:50;94925.09;;;22.05;51.53
67545;BME280;54380;47.770;11.150;2022-08-01T01:30:19;94932.69;;;22.03;51.84
67545;BME280;54380;47.770;11.150;2022-08-01T01:32:48;94929.22;;;22.02;51.80
67545;BME280;54380;47.770;11.150;2022-08-01T01:35:21;94922.72;;;22.03;51.68
67545;BME280;54380;47.770;11.150;2022-08-01T01:37:53;94928.44;;;22.02;51.73
67545;BME280;54380;47.770;11.150;2022-08-01T01:40:21;94931.91;;;22.02;51.71
67545;BME280;54380;47.770;11.150;2022-08-01T01:42:49;94926.06;;;22.00;51.47
67545;BME280;54380;47.770;11.150;2022-08-01T01:45:19;94925.75;;;21.93;51.43
67545;BME280;54380;47.770;11.150;2022-08-01T01:47:48;94926.88;;;21.92;51.49
67545;BME280;54380;47.770;11.150;2022-08-01T01:50:14;94925.31;;;21.91;51.14
67545;BME280;54380;47.770;11.150;2022-08-01T01:52:42;94926.28;;;21.86;51.17
67545;BME280;54380;47.770;11.150;2022-08-01T01:55:11;94921.84;;;21.82;51.23
67545;BME280;54380;47.770;11.150;2022-08-01T01:57:41;94930.06;;;21.77;51.38
67545;BME280;54380;47.770;11.150;2022-08-01T02:00:11;94926.00;;;21.70;51.44
67545;BME280;54380;47.770;11.150;2022-08-01T02:02:40;94923.31;;;21.70;51.49
67545;BME280;54380;47.770;11.150;2022-08-01T02:05:10;94924.88;;;21.72;51.79
67545;BME280;54380;47.770;11.150;2022-08-01T02:07:38;94936.09;;;21.74;51.61
67545;BME280;54380;47.770;11.150;2022-08-01T02:10:06;94933.41;;;21.74;51.60
67545;BME280;54380;47.770;11.150;2022-08-01T02:12:36;94928.03;;;21.74;51.53
67545;BME280;54380;47.770;11.150;2022-08-01T02:15:05;94933.28;;;21.70;51.49
67545;BME280;54380;47.770;11.150;2022-08-01T02:17:39;94936.59;;;21.67;51.42
67545;BME280;54380;47.770;11.150;2022-08-01T02:20:08;94939.13;;;21.63;51.57
67545;BME280;54380;47.770;11.150;2022-08-01T02:22:41;94934.53;;;21.64;51.49
67545;BME280;54380;47.770;11.150;2022-08-01T02:25:12;94944.50;;;21.63;51.82
67545;BME280;54380;47.770;11.150;2022-08-01T02:27:51;94936.59;;;21.67;51.89
67545;BME280;54380;47.770;11.150;2022-08-01T02:30:21;94941.63;;;21.68;51.68
67545;BME280;54380;47.770;11.150;2022-08-01T02:32:56;94940.50;;;21.69;51.96
67545;BME280;54380;47.770;11.150;2022-08-01T02:35:28;94944.78;;;21.70;51.73
67545;BME280;54380;47.770;11.150;2022-08-01T02:37:57;94943.38;;;21.73;51.71
67545;BME280;54380;47.770;11.150;2022-08-01T02:40:26;94946.84;;;21.74;51.70
67545;BME280;54380;47.770;11.150;2022-08-01T02:42:55;94947.63;;;21.74;51.86
67545;BME280;54380;47.770;11.150;2022-08-01T02:45:25;94945.41;;;21.76;51.67
67545;BME280;54380;47.770;11.150;2022-08-01T02:47:57;94946.53;;;21.75;51.85
67545;BME280;54380;47.770;11.150;2022-08-01T02:50:26;94948.75;;;21.73;51.62
67545;BME280;54380;47.770;11.150;2022-08-01T02:52:56;94950.81;;;21.67;51.43
67545;BME280;54380;47.770;11.150;2022-08-01T02:55:24;94954.44;;;21.63;51.53
67545;BME280;54380;47.770;11.150;2022-08-01T02:57:53;94954.31;;;21.59;51.48
67545;BME280;54380;47.770;11.150;2022-08-01T03:00:26;94950.66;;;21.55;51.74
67545;BME280;54380;47.770;11.150;2022-08-01T03:02:55;94954.91;;;21.56;51.68
67545;BME280;54380;47.770;11.150;2022-08-01T03:05:24;94950.66;;;21.55;51.53
67545;BME280;54380;47.770;11.150;2022-08-01T03:07:51;94954.00;;;21.52;51.62
67545;BME280;54380;47.770;11.150;2022-08-01T03:10:20;94956.34;;;21.54;51.69
67545;BME280;54380;47.770;11.150;2022-08-01T03:12:49;94952.88;;;21.53;51.69
67545;BME280;54380;47.770;11.150;2022-08-01T03:15:16;94956.34;;;21.45;51.58
67545;BME280;54380;47.770;11.150;2022-08-01T03:17:45;94952.75;;;21.41;51.47
67545;BME280;54380;47.770;11.150;2022-08-01T03:20:16;94958.25;;;21.36;51.48
67545;BME280;54380;47.770;11.150;2022-08-01T03:22:44;94955.22;;;21.29;51.61
67545;BME280;54380;47.770;11.150;2022-08-01T03:25:14;94962.66;;;21.23;51.60
67545;BME280;54380;47.770;11.150;2022-08-01T03:27:43;94955.53;;;21.18;51.74
67545;BME280;54380;47.770;11.150;2022-08-01T03:30:11;94957.75;;;21.16;51.91
67545;BME280;54380;47.770;11.150;2022-08-01T03:32:39;94961.41;;;21.12;51.95
67545;BME280;54380;47.770;11.150;2022-08-01T03:35:06;94962.47;;;21.11;51.99
67545;BME280;54380;47.770;11.150;2022-08-01T03:37:38;94965.31;;;21.05;52.08
67545;BME280;54380;47.770;11.150;2022-08-01T03:40:34;94968.47;;;20.99;52.28
67545;BME280;54380;47.770;11.150;2022-08-01T03:43:04;94974.00;;;20.94;52.29
67545;BME280;54380;47.770;11.150;2022-08-01T03:45:35;94975.72;;;20.90;52.27
67545;BME280;54380;47.770;11.150;2022-08-01T03:48:06;94973.19;;;20.85;52.46
67545;BME280;54380;47.770;11.150;2022-08-01T03:50:37;94978.69;;;20.79;52.53
67545;BME280;54380;47.770;11.150;2022-08-01T03:53:08;94971.13;;;20.73;52.92
67545;BME280;54380;47.770;11.150;2022-08-01T03:55:38;94983.56;;;20.69;52.88
67545;BME280;54380;47.770;11.150;2022-08-01T03:58:05;94974.72;;;20.59;52.78
67545;BME280;54380;47.770;11.150;2022-08-01T04:00:36;94988.75;;;20.56;53.11
67545;BME280;54380;47.770;11.150;2022-08-01T04:03:06;94985.25;;;20.56;53.00
67545;BME280;54380;47.770;11.150;2022-08-01T04:05:34;94990.41;;;20.52;53.02
67545;BME280;54380;47.770;11.150;2022-08-01T04:08:02;94983.00;;;20.49;52.98
67545;BME280;54380;47.770;11.150;2022-08-01T04:10:30;94987.56;;;20.49;52.93
67545;BME280;54380;47.770;11.150;2022-08-01T04:12:57;94986.75;;;20.48;53.16
67545;BME280;54380;47.770;11.150;2022-08-01T04:15:24;94992.44;;;20.47;52.95
67545;BME280;54380;47.770;11.150;2022-08-01T04:17:50;94995.13;;;20.47;53.26
67545;BME280;54380;47.770;11.150;2022-08-01T04:20:17;94999.09;;;20.49;53.17
67545;BME280;54380;47.770;11.150;2022-08-01T04:22:44;94995.78;;;20.52;52.94
67545;BME280;54380;47.770;11.150;2022-08-01T04:25:14;95001.94;;;20.53;52.98
67545;BME280;54380;47.770;11.150;2022-08-01T04:27:46;95001.44;;;20.51;53.19
67545;BME280;54380;47.770;11.150;2022-08-01T04:30:20;95002.38;;;20.46;53.37
67545;BME280;54380;47.770;11.150;2022-08-01T04:32:48;94999.06;;;20.41;53.63
67545;BME280;54380;47.770;11.150;2022-08-01T04:35:18;94999.34;;;20.39;53.63
67545;BME280;54380;47.770;11.150;2022-08-01T04:38:06;94999.84;;;20.41;53.51
67545;BME280;54380;47.770;11.150;2022-08-01T04:40:35;95002.69;;;20.45;53.55
67545;BME280;54380;47.770;11.150;2022-08-01T04:43:04;95011.38;;;20.50;53.74
67545;BME280;54380;47.770;11.150;2022-08-01T04:45:32;95013.16;;;20.55;53.77
67545;BME280;54380;47.770;11.150;2022-08-01T04:48:00;95013.34;;;20.58;53.77
67545;BME280;54380;47.770;11.150;2022-08-01T04:50:27;95020.75;;;20.61;53.67
67545;BME280;54380;47.770;11.150;2022-08-01T04:52:56;95023.78;;;20.69;53.73
67545;BME280;54380;47.770;11.150;2022-08-01T04:55:23;95024.28;;;20.71;53.56
67545;BME280;54380;47.770;11.150;2022-08-01T04:57:50;95021.75;;;20.74;53.53
67545;BME280;54380;47.770;11.150;2022-08-01T05:00:18;95022.72;;;20.78;53.56
67545;BME280;54380;47.770;11.150;2022-08-01T05:02:45;95023.84;;;20.86;53.49
67545;BME280;54380;47.770;11.150;2022-08-01T05:05:12;95023.38;;;20.93;53.55
67545;BME280;54380;47.770;11.150;2022-08-01T05:07:39;95020.88;;;20.96;53.44
67545;BME280;54380;47.770;11.150;2022-08-01T05:10:11;95016.94;;;21.02;53.33
67545;BME280;54380;47.770;11.150;2022-08-01T05:12:38;95023.72;;;21.09;52.95
67545;BME280;54380;47.770;11.150;2022-08-01T05:15:07;95021.53;;;21.19;52.86
67545;BME280;54380;47.770;11.150;2022-08-01T05:17:41;95021.38;;;21.24;52.97
67545;BME280;54380;47.770;11.150;2022-08-01T05:20:11;95013.66;;;21.32;52.86
67545;BME280;54380;47.770;11.150;2022-08-01T05:22:38;95016.50;;;21.35;52.76
67545;BME280;54380;47.770;11.150;2022-08-01T05:25:06;95016.69;;;21.39;52.50
67545;BME280;54380;47.770;11.150;2022-08-01T05:27:33;95013.06;;;21.43;52.95
67545;BME280;54380;47.770;11.150;2022-08-01T05:30:07;95014.16;;;21.51;52.62
67545;BME280;54380;47.770;11.150;2022-08-01T05:32:34;95005.78;;;21.61;52.52
67545;BME280;54380;47.770;11.150;2022-08-01T05:35:03;95010.69;;;21.77;52.74
67545;BME280;54380;47.770;11.150;2022-08-01T05:37:30;95009.88;;;21.85;52.72
67545;BME280;54380;47.770;11.150;2022-08-01T05:39:56;95003.56;;;21.89;52.09
67545;BME280;54380;47.770;11.150;2022-08-01T05:42:23;95005.13;;;21.99;52.16
67545;BME280;54380;47.770;11.150;2022-08-01T05:44:50;95004.31;;;22.07;51.81
67545;BME280;54380;47.770;11.150;2022-08-01T05:47:17;95008.88;;;22.16;51.68
67545;BME280;54380;47.770;11.150;2022-08-01T05:49:44;95006.66;;;22.18;51.61
67545;BME280;54380;47.770;11.150;2022-08-01T05:52:16;95009.34;;;22.26;51.32
67545;BME280;54380;47.770;11.150;2022-08-01T05:54:43;95005.06;;;22.34;51.24
67545;BME280;54380;47.770;11.150;2022-08-01T05:57:09;95006.00;;;22.38;51.15
67545;BME280;54380;47.770;11.150;2022-08-01T05:59:37;95011.19;;;22.43;51.09
67545;BME280;54380;47.770;11.150;2022-08-01T06:02:04;95015.94;;;22.46;50.94
67545;BME280;54380;47.770;11.150;2022-08-01T06:04:31;95016.84;;;22.50;50.93
67545;BME280;54380;47.770;11.150;2022-08-01T06:06:58;95008.13;;;22.62;50.94
67545;BME280;54380;47.770;11.150;2022-08-01T06:09:26;95012.66;;;22.70;50.38
67545;BME280;54380;47.770;11.150;2022-08-01T06:11:53;95016.75;;;22.76;50.28
67545;BME280;54380;47.770;11.150;2022-08-01T06:14:20;95016.69;;;22.85;50.11
67545;BME280;54380;47.770;11.150;2022-08-01T06:16:47;95011.44;;;22.97;49.24
67545;BME280;54380;47.770;11.150;2022-08-01T06:19:13;95022.63;;;23.08;48.81
67545;BME280;54380;47.770;11.150;2022-08-01T06:21:40;95013.03;;;23.19;48.39
67545;BME280;54380;47.770;11.150;2022-08-01T06:24:07;95019.16;;;23.29;48.46
67545;BME280;54380;47.770;11.150;2022-08-01T06:26:35;95019.09;;;23.37;48.61
67545;BME280;54380;47.770;11.150;2022-08-01T06:29:03;95014.09;;;23.48;48.55
67545;BME280;54380;47.770;11.150;2022-08-01T06:31:30;95020.34;;;23.61;48.74
67545;BME280;54380;47.770;11.150;2022-08-01T06:33:59;95027.19;;;23.79;48.45
67545;BME280;54380;47.770;11.150;2022-08-01T06:36:26;95019.16;;;23.92;48.32
67545;BME280;54380;47.770;11.150;2022-08-01T06:38:53;95023.69;;;24.00;47.76
67545;BME280;54380;47.770;11.150;2022-08-01T06:41:19;95021.88;;;24.04;47.63
67545;BME280;54380;47.770;11.150;2022-08-01T06:43:47;95022.50;;;24.09;47.84
67545;BME280;54380;47.770;11.150;2022-08-01T06:46:14;95014.19;;;24.15;47.65
67545;BME280;54380;47.770;11.150;2022-08-01T06:48:41;95017.00;;;24.18;47.97
67545;BME280;54380;47.770;11.150;2022-08-01T06:51:09;95027.69;;;24.27;47.72
67545;BME280;54380;47.770;11.150;2022-08-01T06:53:36;95017.25;;;24.38;47.55
67545;BME280;54380;47.770;11.150;2022-08-01T06:56:04;95021.00;;;24.45;47.47
67545;BME280;54380;47.770;11.150;2022-08-01T06:58:31;95015.53;;;24.54;47.87
67545;BME280;54380;47.770;11.150;2022-08-01T07:01:00;95012.03;;;24.66;47.70
67545;BME280;54380;47.770;11.150;2022-08-01T07:03:27;95012.38;;;24.77;47.13
67545;BME280;54380;47.770;11.150;2022-08-01T07:06:14;95023.06;;;24.85;47.31
67545;BME280;54380;47.770;11.150;2022-08-01T07:08:41;95021.38;;;24.93;46.50
67545;BME280;54380;47.770;11.150;2022-08-01T07:11:08;95018.13;;;25.00;46.97
67545;BME280;54380;47.770;11.150;2022-08-01T07:13:34;95018.00;;;25.08;46.69
67545;BME280;54380;47.770;11.150;2022-08-01T07:16:12;95022.03;;;25.14;45.83
67545;BME280;54380;47.770;11.150;2022-08-01T07:18:40;95017.25;;;25.20;45.89
67545;BME280;54380;47.770;11.150;2022-08-01T07:21:07;95022.16;;;25.30;46.00
67545;BME280;54380;47.770;11.150;2022-08-01T07:23:54;95015.03;;;25.38;45.09
67545;BME280;54380;47.770;11.150;2022-08-01T07:26:21;95020.13;;;25.39;45.39
67545;BME280;54380;47.770;11.150;2022-08-01T07:28:48;95007.16;;;25.45;44.50
67545;BME280;54380;47.770;11.150;2022-08-01T07:31:16;95008.47;;;25.51;44.69
67545;BME280;54380;47.770;11.150;2022-08-01T07:33:42;95013.41;;;25.61;44.67
67545;BME280;54380;47.770;11.150;2022-08-01T07:36:14;95000.63;;;25.74;44.54
67545;BME280;54380;47.770;11.150;2022-08-01T07:38:41;94998.72;;;25.87;44.54
67545;BME280;54380;47.770;11.150;2022-08-01T07:41:08;95002.84;;;25.97;44.03
67545;BME280;54380;47.770;11.150;2022-08-01T07:43:35;94996.41;;;26.01;43.94
67545;BME280;54380;47.770;11.150;2022-08-01T07:46:02;94998.56;;;26.12;44.19
67545;BME280;54380;47.770;11.150;2022-08-01T07:48:30;94995.03;;;26.23;43.96
67545;BME280;54380;47.770;11.150;2022-08-01T07:50:57;94996.97;;;26.39;43.81
67545;BME280;54380;47.770;11.150;2022-08-01T07:53:23;94998.72;;;26.47;43.47
67545;BME280;54380;47.770;11.150;2022-08-01T07:55:50;94995.53;;;26.57;43.06
67545;BME280;54380;47.770;11.150;2022-08-01T07:58:17;94984.25;;;26.71;43.43
67545;BME280;54380;47.770;11.150;2022-08-01T08:00:44;94989.03;;;26.78;42.74
67545;BME280;54380;47.770;11.150;2022-08-01T08:03:10;94989.97;;;26.85;42.64
67545;BME280;54380;47.770;11.150;2022-08-01T08:05:39;94988.59;;;26.91;42.63
67545;BME280;54380;47.770;11.150;2022-08-01T08:08:25;94987.88;;;26.95;42.17
67545;BME280;54380;47.770;11.150;2022-08-01T08:10:52;94991.53;;;27.02;41.94
67545;BME280;54380;47.770;11.150;2022-08-01T08:13:18;94984.78;;;27.12;42.31
67545;BME280;54380;47.770;11.150;2022-08-01T08:15:46;94986.28;;;27.25;42.13
67545;BME280;54380;47.770;11.150;2022-08-01T08:18:14;94984.94;;;27.35;41.08
67545;BME280;54380;47.770;11.150;2022-08-01T08:20:42;94981.78;;;27.33;40.59
67545;BME280;54380;47.770;11.150;2022-08-01T08:23:09;94986.50;;;27.36;41.01
67545;BME280;54380;47.770;11.150;2022-08-01T08:26:09;94984.03;;;27.47;41.28
67545;BME280;54380;47.770;11.150;2022-08-01T08:28:35;94990.44;;;27.58;40.70
67545;BME280;54380;47.770;11.150;2022-08-01T08:31:02;94987.88;;;27.65;40.65
67545;BME280;54380;47.770;11.150;2022-08-01T08:33:29;94991.94;;;27.75;39.98
67545;BME280;54380;47.770;11.150;2022-08-01T08:35:57;94993.16;;;27.77;39.58
67545;BME280;54380;47.770;11.150;2022-08-01T08:38:24;94987.84;;;27.81;39.42
67545;BME280;54380;47.770;11.150;2022-08-01T08:40:55;94992.88;;;27.83;39.42
67545;BME280;54380;47.770;11.150;2022-08-01T08:43:23;94989.88;;;27.88;39.43
67545;BME280;54380;47.770;11.150;2022-08-01T08:45:50;94994.31;;;27.96;39.35
67545;BME280;54380;47.770;11.150;2022-08-01T08:48:25;94988.25;;;28.02;39.92
67545;BME280;54380;47.770;11.150;2022-08-01T08:50:53;94991.94;;;28.14;39.41
67545;BME280;54380;47.770;11.150;2022-08-01T08:53:23;94986.34;;;28.26;39.39
67545;BME280;54380;47.770;11.150;2022-08-01T08:56:00;94978.38;;;28.37;38.73
67545;BME280;54380;47.770;11.150;2022-08-01T08:58:28;94977.38;;;28.45;38.95
67545;BME280;54380;47.770;11.150;2022-08-01T09:00:57;94979.84;;;28.54;38.81
67545;BME280;54380;47.770;11.150;2022-08-01T09:03:24;94978.13;;;28.65;38.96
67545;BME280;54380;47.770;11.150;2022-08-01T09:05:51;94982.97;;;28.79;38.59
67545;BME280;54380;47.770;11.150;2022-08-01T09:08:18;94974.56;;;28.87;38.57
67545;BME280;54380;47.770;11.150;2022-08-01T09:10:46;94979.03;;;28.99;38.04
67545;BME280;54380;47.770;11.150;2022-08-01T09:13:14;94970.66;;;29.12;38.22
67545;BME280;54380;47.770;11.150;2022-08-01T09:15:44;94981.34;;;29.24;37.61
67545;BME280;54380;47.770;11.150;2022-08-01T09:18:26;94987.00;;;29.42;37.43
67545;BME280;54380;47.770;11.150;2022-08-01T09:21:14;94982.13;;;29.54;37.04
67545;BME280;54380;47.770;11.150;2022-08-01T09:23:44;94982.16;;;29.58;37.48
67545;BME280;54380;47.770;11.150;2022-08-01T09:26:29;94984.69;;;29.70;36.74
67545;BME280;54380;47.770;11.150;2022-08-01T09:28:57;94977.00;;;29.80;36.66
67545;BME280;54380;47.770;11.150;2022-08-01T09:31:27;94987.91;;;29.83;36.06
67545;BME280;54380;47.770;11.150;2022-08-01T09:34:04;94977.41;;;29.78;36.41
67545;BME280;54380;47.770;11.150;2022-08-01T09:36:43;94973.19;;;29.84;36.24
67545;BME280;54380;47.770;11.150;2022-08-01T09:39:12;94966.66;;;29.92;36.43
67545;BME280;54380;47.770;11.150;2022-08-01T09:41:41;94974.16;;;30.03;36.13
67545;BME280;54380;47.770;11.150;2022-08-01T09:44:07;94967.97;;;30.06;36.05
67545;BME280;54380;47.770;11.150;2022-08-01T09:46:34;94964.94;;;30.14;35.17
67545;BME280;54380;47.770;11.150;2022-08-01T09:49:05;94964.59;;;30.19;34.95
67545;BME280;54380;47.770;11.150;2022-08-01T09:51:38;94968.84;;;30.17;34.43
67545;BME280;54380;47.770;11.150;2022-08-01T09:54:30;94959.81;;;30.09;34.84
67545;BME280;54380;47.770;11.150;2022-08-01T09:57:09;94959.25;;;30.27;34.89
67545;BME280;54380;47.770;11.150;2022-08-01T09:59:37;94966.00;;;30.40;34.48
67545;BME280;54380;47.770;11.150;2022-08-01T10:02:30;94958.25;;;30.46;34.24
67545;BME280;54380;47.770;11.150;2022-08-01T10:04:57;94954.34;;;30.43;34.37
67545;BME280;54380;47.770;11.150;2022-08-01T10:07:34;94960.56;;;30.44;33.90
67545;BME280;54380;47.770;11.150;2022-08-01T10:10:10;94948.97;;;30.54;34.74
67545;BME280;54380;47.770;11.150;2022-08-01T10:12:42;94950.25;;;30.63;34.49
67545;BME280;54380;47.770;11.150;2022-08-01T10:15:12;94949.91;;;30.72;34.64
67545;BME280;54380;47.770;11.150;2022-08-01T10:17:50;94956.66;;;30.86;33.74
67545;BME280;54380;47.770;11.150;2022-08-01T10:20:24;94945.38;;;30.87;34.34
67545;BME280;54380;47.770;11.150;2022-08-01T10:22:59;94949.72;;;30.99;33.59
67545;BME280;54380;47.770;11.150;2022-08-01T10:25:34;94948.53;;;30.96;33.73
67545;BME280;54380;47.770;11.150;2022-08-01T10:28:13;94935.72;;;30.97;33.35
67545;BME280;54380;47.770;11.150;2022-08-01T10:30:47;94926.78;;;31.03;33.46
67545;BME280;54380;47.770;11.150;2022-08-01T10:33:15;94935.06;;;31.18;33.75
67545;BME280;54380;47.770;11.150;2022-08-01T10:36:04;94928.06;;;31.27;32.88
67545;BME280;54380;47.770;11.150;2022-08-01T10:38:34;94924.22;;;31.28;32.74
67545;BME280;54380;47.770;11.150;2022-08-01T10:41:02;94918.75;;;31.28;32.99
67545;BME280;54380;47.770;11.150;2022-08-01T10:43:35;94924.97;;;31.25;32.77
67545;BME280;54380;47.770;11.150;2022-08-01T10:46:03;94921.44;;;31.25;32.46
67545;BME280;54380;47.770;11.150;2022-08-01T10:48:41;94924.63;;;31.34;33.31
67545;BME280;54380;47.770;11.150;2022-08-01T10:51:11;94919.66;;;31.54;33.55
67545;BME280;54380;47.770;11.150;2022-08-01T10:53:48;94918.91;;;31.64;32.10
67545;BME280;54380;47.770;11.150;2022-08-01T10:56:20;94915.81;;;31.66;32.79
67545;BME280;54380;47.770;11.150;2022-08-01T10:59:00;94915.84;;;31.73;32.25
67545;BME280;54380;47.770;11.150;2022-08-01T11:01:32;94919.31;;;31.70;32.02
67545;BME280;54380;47.770;11.150;2022-08-01T11:04:06;94911.16;;;31.74;31.75
67545;BME280;54380;47.770;11.150;2022-08-01T11:07:03;94912.72;;;31.85;31.20
67545;BME280;54380;47.770;11.150;2022-08-01T11:09:42;94901.81;;;31.85;31.32
67545;BME280;54380;47.770;11.150;2022-08-01T11:12:18;94899.09;;;31.82;30.94
67545;BME280;54380;47.770;11.150;2022-08-01T11:15:17;94902.94;;;31.70;31.47
67545;BME280;54380;47.770;11.150;2022-08-01T11:18:03;94900.22;;;31.70;31.51
67545;BME280;54380;47.770;11.150;2022-08-01T11:20:57;94892.03;;;31.81;31.41
67545;BME280;54380;47.770;11.150;2022-08-01T11:23:47;94892.13;;;31.95;31.66
67545;BME280;54380;47.770;11.150;2022-08-01T11:26:16;94896.41;;;32.03;31.49
67545;BME280;54380;47.770;11.150;2022-08-01T11:28:45;94890.97;;;32.03;31.85
67545;BME280;54380;47.770;11.150;2022-08-01T11:31:34;94884.75;;;32.10;31.56
67545;BME280;54380;47.770;11.150;2022-08-01T11:34:06;94879.69;;;32.16;31.11
67545;BME280;54380;47.770;11.150;2022-08-01T11:36:33;94883.56;;;32.18;31.06
67545;BME280;54380;47.770;11.150;2022-08-01T11:39:20;94881.63;;;32.26;31.20
67545;BME280;54380;47.770;11.150;2022-08-01T11:41:48;94878.50;;;32.38;31.40
67545;BME280;54380;47.770;11.150;2022-08-01T11:44:17;94877.75;;;32.52;30.96
67545;BME280;54380;47.770;11.150;2022-08-01T11:46:54;94878.91;;;32.58;30.82
67545;BME280;54380;47.770;11.150;2022-08-01T11:49:26;94872.66;;;32.40;30.29
67545;BME280;54380;47.770;11.150;2022-08-01T11:52:03;94875.38;;;32.29;31.03
67545;BME280;54380;47.770;11.150;2022-08-01T11:54:32;94879.66;;;32.30;30.84
67545;BME280;54380;47.770;11.150;2022-08-01T11:57:03;94877.72;;;32.34;30.21
67545;BME280;54380;47.770;11.150;2022-08-01T11:59:36;94878.09;;;32.22;30.18
67545;BME280;54380;47.770;11.150;2022-08-01T12:02:22;94866.38;;;32.18;30.40
67545;BME280;54380;47.770;11.150;2022-08-01T12:04:58;94876.94;;;32.16;30.52
67545;BME280;54380;47.770;11.150;2022-08-01T12:07:26;94870.28;;;32.20;30.23
67545;BME280;54380;47.770;11.150;2022-08-01T12:09:57;94864.44;;;32.00;29.73
67545;BME280;54380;47.770;11.150;2022-08-01T12:12:25;94871.38;;;31.73;30.31
67545;BME280;54380;47.770;11.150;2022-08-01T12:14:53;94867.81;;;31.47;30.91
67545;BME280;54380;47.770;11.150;2022-08-01T12:17:28;94866.94;;;31.36;31.17
67545;BME280;54380;47.770;11.150;2022-08-01T12:19:54;94860.78;;;31.46;31.42
67545;BME280;54380;47.770;11.150;2022-08-01T12:22:23;94853.81;;;31.59;30.90
67545;BME280;54380;47.770;11.150;2022-08-01T12:24:51;94855.34;;;31.53;30.75
67545;BME280;54380;47.770;11.150;2022-08-01T12:27:25;94854.97;;;31.55;30.78
67545;BME280;54380;47.770;11.150;2022-08-01T12:29:52;94860.84;;;31.64;29.76
67545;BME280;54380;47.770;11.150;2022-08-01T12:32:24;94844.47;;;31.67;29.70
67545;BME280;54380;47.770;11.150;2022-08-01T12:35:03;94858.53;;;31.73;29.60
67545;BME280;54380;47.770;11.150;2022-08-01T12:37:31;94854.66;;;31.81;30.09
67545;BME280;54380;47.770;11.150;2022-08-01T12:39:58;94853.88;;;31.91;30.18
67545;BME280;54380;47.770;11.150;2022-08-01T12:42:25;94854.69;;;31.99;29.46
67545;BME280;54380;47.770;11.150;2022-08-01T12:44:53;94843.78;;;32.03;29.58
67545;BME280;54380;47.770;11.150;2022-08-01T12:47:21;94850.41;;;31.95;28.64
67545;BME280;54380;47.770;11.150;2022-08-01T12:49:48;94848.81;;;31.90;29.17
67545;BME280;54380;47.770;11.150;2022-08-01T12:52:17;94839.09;;;32.03;29.23
67545;BME280;54380;47.770;11.150;2022-08-01T12:55:07;94837.16;;;32.11;28.86
67545;BME280;54380;47.770;11.150;2022-08-01T12:57:39;94844.50;;;31.82;29.12
67545;BME280;54380;47.770;11.150;2022-08-01T13:00:18;94833.16;;;31.55;29.81
67545;BME280;54380;47.770;11.150;2022-08-01T13:02:46;94837.06;;;31.57;29.41
67545;BME280;54380;47.770;11.150;2022-08-01T13:05:14;94837.84;;;31.65;29.04
67545;BME280;54380;47.770;11.150;2022-08-01T13:07:46;94835.91;;;31.69;28.91